Time;durP1;ratioP1;P1;durP2;ratioP2;P2;SDS_P1;SDS_P2;PMS_P1;PMS_P2;Temp;Humidity;BMP_temperature;BMP_pressure;BME280_temperature;BME280_humidity;BME280_pressure;Samples;Min_cycle;Max_cycle;Signal;HPM_P1;HPM_P2
2021/12/01 00:01:02;;;;;;;1.10;0.73;;;;;;;;;;4933774;29;20058;-76
2021/12/01 00:03:28;;;;;;;1.47;1.13;;;;;;;;;;4933299;29;20027;-77
2021/12/01 00:05:55;;;;;;;1.57;1.17;;;;;;;;;;4933052;29;20106;-76
2021/12/01 00:08:20;;;;;;;1.30;1.20;;;;;;;;;;4933023;29;20036;-76
2021/12/01 00:10:48;;;;;;;2.43;1.30;;;;;;;;;;4932881;29;20036;-76
2021/12/01 00:13:17;;;;;;;1.37;1.10;;;;;;;;;;4932980;29;20098;-76
2021/12/01 00:15:44;;;;;;;2.80;1.50;;;;;;;;;;4932891;29;20035;-76
2021/12/01 00:18:10;;;;;;;2.17;1.40;;;;;;;;;;4932441;29;20429;-75
2021/12/01 00:20:36;;;;;;;2.97;1.23;;;;;;;;;;4931636;29;20115;-77
2021/12/01 00:23:03;;;;;;;5.27;1.60;;;;;;;;;;4933706;29;20066;-76
2021/12/01 00:25:31;;;;;;;1.70;1.40;;;;;;;;;;4931712;29;20455;-74
2021/12/01 00:27:56;;;;;;;1.60;1.30;;;;;;;;;;4932726;29;20036;-76
2021/12/01 00:30:23;;;;;;;1.93;1.60;;;;;;;;;;4933100;29;20035;-76
2021/12/01 00:32:51;;;;;;;4.47;1.90;;;;;;;;;;4931731;29;20169;-76
2021/12/01 00:35:16;;;;;;;2.30;1.57;;;;;;;;;;4931374;29;20118;-77
2021/12/01 00:37:42;;;;;;;1.70;1.23;;;;;;;;;;4933067;29;20365;-76
2021/12/01 00:40:11;;;;;;;1.40;1.30;;;;;;;;;;4932762;29;20024;-77
2021/12/01 00:42:37;;;;;;;2.67;1.30;;;;;;;;;;4932958;29;20031;-76
2021/12/01 00:45:13;;;;;;;3.67;1.60;;;;;;;;;;4931404;29;20106;-76
2021/12/01 00:47:43;;;;;;;1.53;1.27;;;;;;;;;;4931322;29;20078;-73
2021/12/01 00:50:11;;;;;;;1.50;1.37;;;;;;;;;;4932585;29;20035;-75
2021/12/01 00:52:37;;;;;;;2.30;1.23;;;;;;;;;;4931134;29;20027;-76
2021/12/01 00:55:03;;;;;;;2.07;1.20;;;;;;;;;;4931378;29;20039;-76
2021/12/01 00:57:29;;;;;;;2.80;1.20;;;;;;;;;;4932601;29;20039;-76
2021/12/01 00:59:54;;;;;;;1.87;1.10;;;;;;;;;;4931210;29;20019;-76
2021/12/01 01:02:20;;;;;;;2.30;1.30;;;;;;;;;;4931309;29;20055;-76
2021/12/01 01:04:45;;;;;;;2.13;1.30;;;;;;;;;;4932231;29;20027;-77
2021/12/01 01:07:11;;;;;;;1.43;1.30;;;;;;;;;;4931091;29;20035;-76
2021/12/01 01:09:38;;;;;;;2.90;1.40;;;;;;;;;;4932927;29;20035;-76
2021/12/01 01:17:38;;;;;;;1.83;1.40;;;;;;;;;;4932493;29;20042;-76
2021/12/01 01:20:10;;;;;;;1.90;1.20;;;;;;;;;;4932586;29;20024;-76
2021/12/01 01:22:37;;;;;;;1.67;1.48;;;;;;;;;;4932277;29;20038;-77
2021/12/01 01:25:04;;;;;;;2.87;1.30;;;;;;;;;;4930859;29;20034;-77
2021/12/01 01:27:30;;;;;;;2.60;1.07;;;;;;;;;;4930943;29;20032;-76
2021/12/01 01:29:55;;;;;;;1.67;1.10;;;;;;;;;;4932109;29;20389;-76
2021/12/01 01:32:21;;;;;;;2.63;1.10;;;;;;;;;;4930825;29;20055;-77
2021/12/01 01:34:46;;;;;;;2.20;1.20;;;;;;;;;;4930569;29;20052;-75
2021/12/01 01:37:12;;;;;;;1.50;1.00;;;;;;;;;;4932437;29;20495;-76
2021/12/01 01:39:37;;;;;;;1.83;1.03;;;;;;;;;;4933028;29;20028;-76
2021/12/01 01:42:03;;;;;;;1.43;1.10;;;;;;;;;;4932000;29;20111;-77
2021/12/01 01:44:30;;;;;;;1.20;1.10;;;;;;;;;;4931851;29;20102;-75
2021/12/01 01:46:56;;;;;;;1.03;0.77;;;;;;;;;;4930575;29;20051;-75
2021/12/01 01:49:34;;;;;;;3.13;1.20;;;;;;;;;;4931808;29;20126;-76
2021/12/01 01:52:00;;;;;;;1.23;0.80;;;;;;;;;;4930440;29;20039;-75
2021/12/01 01:54:25;;;;;;;1.43;0.97;;;;;;;;;;4932175;29;20035;-77
2021/12/01 01:56:51;;;;;;;1.20;1.10;;;;;;;;;;4934015;29;20396;-75
2021/12/01 01:59:17;;;;;;;4.43;1.23;;;;;;;;;;4934185;29;20389;-75
2021/12/01 02:04:08;;;;;;;1.87;1.10;;;;;;;;;;4935532;29;20417;-76
2021/12/01 02:06:35;;;;;;;0.90;0.90;;;;;;;;;;4933958;29;20028;-76
2021/12/01 02:09:00;;;;;;;1.47;1.10;;;;;;;;;;4935148;29;20099;-76
2021/12/01 02:11:28;;;;;;;2.37;1.20;;;;;;;;;;4934202;29;20168;-76
2021/12/01 02:13:54;;;;;;;2.73;1.40;;;;;;;;;;4933961;29;20030;-77
2021/12/01 02:16:21;;;;;;;1.70;1.30;;;;;;;;;;4935196;29;20034;-76
2021/12/01 02:18:47;;;;;;;2.60;1.27;;;;;;;;;;4935193;29;20098;-77
2021/12/01 02:21:26;;;;;;;4.67;1.50;;;;;;;;;;4934009;29;20091;-74
2021/12/01 02:23:52;;;;;;;1.67;1.20;;;;;;;;;;4935064;29;20106;-77
2021/12/01 02:26:20;;;;;;;2.10;1.53;;;;;;;;;;4933693;29;20114;-76
2021/12/01 02:28:47;;;;;;;1.47;1.30;;;;;;;;;;4934873;29;20031;-76
2021/12/01 02:31:14;;;;;;;1.70;1.30;;;;;;;;;;4935059;29;20063;-75
2021/12/01 02:33:40;;;;;;;2.63;1.87;;;;;;;;;;4935056;29;20071;-73
2021/12/01 02:36:09;;;;;;;1.67;1.30;;;;;;;;;;4934821;29;20019;-77
2021/12/01 02:38:36;;;;;;;1.40;1.30;;;;;;;;;;4935079;29;20023;-77
2021/12/01 02:41:02;;;;;;;1.53;1.27;;;;;;;;;;4934549;29;20071;-74
2021/12/01 02:43:29;;;;;;;1.60;1.50;;;;;;;;;;4933410;29;20023;-76
2021/12/01 02:45:55;;;;;;;2.83;1.93;;;;;;;;;;4933140;29;20396;-76
2021/12/01 02:48:23;;;;;;;3.27;1.70;;;;;;;;;;4933147;29;20090;-75
2021/12/01 02:50:50;;;;;;;1.70;1.60;;;;;;;;;;4932890;29;20024;-76
2021/12/01 02:53:19;;;;;;;3.90;1.80;;;;;;;;;;4933364;29;20020;-76
2021/12/01 02:55:56;;;;;;;1.57;1.47;;;;;;;;;;4934737;29;20030;-76
2021/12/01 02:58:23;;;;;;;2.37;1.90;;;;;;;;;;4933404;29;20031;-77
2021/12/01 03:00:50;;;;;;;2.00;1.40;;;;;;;;;;4934464;29;20023;-75
2021/12/01 03:03:17;;;;;;;1.70;1.40;;;;;;;;;;4933129;29;20039;-76
2021/12/01 03:05:46;;;;;;;3.60;1.80;;;;;;;;;;4934214;29;20027;-74
2021/12/01 03:08:12;;;;;;;3.30;2.00;;;;;;;;;;4933702;29;20080;-77
2021/12/01 03:10:38;;;;;;;2.20;1.80;;;;;;;;;;4934206;29;20051;-77
2021/12/01 03:13:05;;;;;;;3.47;1.77;;;;;;;;;;4932394;29;20044;-76
2021/12/01 03:15:30;;;;;;;4.03;2.20;;;;;;;;;;4932251;29;20079;-76
2021/12/01 03:17:57;;;;;;;6.03;1.73;;;;;;;;;;4934009;29;20067;-77
2021/12/01 03:20:23;;;;;;;3.37;2.00;;;;;;;;;;4933873;29;20015;-76
2021/12/01 03:22:48;;;;;;;2.13;1.80;;;;;;;;;;4932194;29;20548;-74
2021/12/01 03:25:14;;;;;;;2.17;1.90;;;;;;;;;;4933962;29;20032;-77
2021/12/01 03:27:40;;;;;;;3.93;2.13;;;;;;;;;;4932525;29;20373;-76
2021/12/01 03:30:09;;;;;;;3.00;1.73;;;;;;;;;;4932385;29;20169;-77
2021/12/01 03:32:35;;;;;;;2.30;2.03;;;;;;;;;;4934554;29;20039;-76
2021/12/01 03:35:04;;;;;;;1.57;1.47;;;;;;;;;;4934505;29;20099;-76
2021/12/01 03:37:30;;;;;;;1.80;1.70;;;;;;;;;;4934203;29;20046;-77
2021/12/01 03:39:56;;;;;;;1.63;1.33;;;;;;;;;;4932600;29;20459;-77
2021/12/01 03:42:22;;;;;;;1.60;1.50;;;;;;;;;;4934022;29;20055;-76
2021/12/01 03:44:47;;;;;;;3.33;2.40;;;;;;;;;;4932650;29;20055;-76
2021/12/01 03:47:13;;;;;;;2.10;1.70;;;;;;;;;;4932393;29;20397;-76
2021/12/01 03:49:38;;;;;;;2.53;1.90;;;;;;;;;;4934180;29;20028;-77
2021/12/01 03:52:05;;;;;;;5.07;1.53;;;;;;;;;;4934017;29;20362;-76
2021/12/01 03:54:31;;;;;;;3.10;2.07;;;;;;;;;;4933686;29;20023;-76
2021/12/01 03:56:56;;;;;;;2.23;1.77;;;;;;;;;;4933475;29;20499;-77
2021/12/01 03:59:22;;;;;;;2.23;1.87;;;;;;;;;;4931871;29;20036;-77
2021/12/01 04:01:47;;;;;;;2.20;1.70;;;;;;;;;;4932134;29;20028;-75
2021/12/01 04:04:13;;;;;;;4.33;2.10;;;;;;;;;;4933003;29;20031;-75
2021/12/01 04:06:39;;;;;;;3.13;2.40;;;;;;;;;;4932057;29;20385;-77
2021/12/01 04:09:05;;;;;;;3.67;2.70;;;;;;;;;;4931791;29;20036;-76
2021/12/01 04:11:30;;;;;;;3.70;2.50;;;;;;;;;;4916063;29;20082;-76
2021/12/01 04:13:56;;;;;;;3.83;2.43;;;;;;;;;;4933024;29;20067;-76
2021/12/01 04:16:22;;;;;;;4.83;2.27;;;;;;;;;;4932848;29;20183;-76
2021/12/01 04:18:48;;;;;;;1.90;1.70;;;;;;;;;;4933196;29;20040;-76
2021/12/01 04:21:13;;;;;;;2.30;1.97;;;;;;;;;;4932710;29;20094;-76
2021/12/01 04:23:39;;;;;;;1.67;1.57;;;;;;;;;;4933180;29;20130;-76
2021/12/01 04:26:05;;;;;;;1.87;1.60;;;;;;;;;;4931249;29;20492;-77
2021/12/01 04:28:31;;;;;;;2.67;1.90;;;;;;;;;;4932740;29;20119;-75
2021/12/01 04:30:56;;;;;;;2.50;1.33;;;;;;;;;;4932962;29;20040;-77
2021/12/01 04:33:21;;;;;;;2.83;1.37;;;;;;;;;;4931582;29;20071;-75
2021/12/01 04:35:49;;;;;;;2.57;1.10;;;;;;;;;;4931708;29;20047;-77
2021/12/01 04:38:15;;;;;;;2.10;1.23;;;;;;;;;;4932650;29;20093;-76
2021/12/01 04:40:40;;;;;;;2.40;1.17;;;;;;;;;;4930845;29;20476;-76
2021/12/01 04:43:06;;;;;;;1.30;1.20;;;;;;;;;;4931688;29;20165;-76
2021/12/01 04:45:36;;;;;;;1.27;1.10;;;;;;;;;;4931550;29;20040;-75
2021/12/01 04:48:01;;;;;;;3.37;1.27;;;;;;;;;;4932091;29;20032;-76
2021/12/01 04:50:28;;;;;;;1.43;1.07;;;;;;;;;;4932298;29;20086;-76
2021/12/01 04:52:55;;;;;;;5.13;1.10;;;;;;;;;;4930766;29;20458;-75
2021/12/01 04:55:22;;;;;;;1.20;1.10;;;;;;;;;;4931464;29;20071;-78
2021/12/01 04:57:48;;;;;;;1.30;1.17;;;;;;;;;;4932518;29;20091;-76
2021/12/01 05:00:27;;;;;;;1.77;1.67;;;;;;;;;;4930834;29;20054;-77
2021/12/01 05:02:53;;;;;;;2.87;1.27;;;;;;;;;;4930954;29;20067;-73
2021/12/01 05:05:19;;;;;;;2.00;1.10;;;;;;;;;;4930929;29;20027;-77
2021/12/01 05:07:44;;;;;;;2.30;1.00;;;;;;;;;;4930900;29;20031;-76
2021/12/01 05:10:11;;;;;;;1.13;1.03;;;;;;;;;;4932128;29;20032;-77
2021/12/01 05:12:37;;;;;;;2.07;1.13;;;;;;;;;;4931161;29;20035;-75
2021/12/01 05:15:04;;;;;;;0.90;0.90;;;;;;;;;;4931176;29;20127;-75
2021/12/01 05:17:30;;;;;;;1.50;1.10;;;;;;;;;;4930745;29;20055;-77
2021/12/01 05:19:55;;;;;;;1.23;1.13;;;;;;;;;;4932474;29;20444;-78
2021/12/01 05:22:21;;;;;;;2.93;1.03;;;;;;;;;;4932608;29;20106;-76
2021/12/01 05:24:46;;;;;;;3.47;1.93;;;;;;;;;;4932770;29;20039;-78
2021/12/01 05:27:12;;;;;;;1.23;1.00;;;;;;;;;;4932375;29;20428;-77
2021/12/01 05:29:37;;;;;;;1.33;1.00;;;;;;;;;;4931718;29;20032;-77
2021/12/01 05:32:03;;;;;;;4.53;1.60;;;;;;;;;;4934808;29;20027;-76
2021/12/01 05:34:29;;;;;;;2.07;1.03;;;;;;;;;;4934414;29;20144;-76
2021/12/01 05:36:59;;;;;;;2.60;1.70;;;;;;;;;;4935955;29;20107;-75
2021/12/01 05:39:25;;;;;;;1.47;0.87;;;;;;;;;;4934527;29;20031;-76
2021/12/01 05:41:52;;;;;;;1.53;1.20;;;;;;;;;;4935071;29;20020;-78
2021/12/01 05:44:17;;;;;;;2.13;1.50;;;;;;;;;;4935680;29;20024;-76
2021/12/01 05:46:43;;;;;;;2.07;1.20;;;;;;;;;;4936010;29;20388;-76
2021/12/01 05:49:08;;;;;;;1.07;0.70;;;;;;;;;;4935608;29;20480;-76
2021/12/01 05:51:34;;;;;;;1.60;1.40;;;;;;;;;;4934556;29;20374;-76
2021/12/01 05:54:01;;;;;;;3.20;0.80;;;;;;;;;;4934429;29;20448;-77
2021/12/01 05:56:27;;;;;;;2.60;1.00;;;;;;;;;;4934503;29;20030;-77
2021/12/01 05:58:53;;;;;;;2.67;1.10;;;;;;;;;;4935129;29;20151;-78
2021/12/01 06:01:19;;;;;;;1.93;1.10;;;;;;;;;;4935310;29;20094;-75
2021/12/01 06:03:45;;;;;;;4.30;1.27;;;;;;;;;;4935424;29;20034;-76
2021/12/01 06:06:11;;;;;;;2.60;1.20;;;;;;;;;;4935202;29;20428;-76
2021/12/01 06:08:36;;;;;;;2.30;1.13;;;;;;;;;;4935210;29;20055;-77
2021/12/01 06:11:03;;;;;;;5.13;1.60;;;;;;;;;;4935166;29;20036;-76
2021/12/01 06:13:29;;;;;;;1.23;1.13;;;;;;;;;;4935342;29;20067;-78
2021/12/01 06:15:55;;;;;;;1.53;1.43;;;;;;;;;;4934155;29;20550;-76
2021/12/01 06:18:20;;;;;;;1.43;1.23;;;;;;;;;;4934261;29;20027;-77
2021/12/01 06:20:46;;;;;;;2.23;1.20;;;;;;;;;;4935309;29;20352;-76
2021/12/01 06:23:12;;;;;;;3.23;1.30;;;;;;;;;;4934788;29;20083;-77
2021/12/01 06:25:37;;;;;;;3.07;1.50;;;;;;;;;;4933644;29;20027;-77
2021/12/01 06:28:03;;;;;;;2.10;2.00;;;;;;;;;;4934807;29;20111;-77
2021/12/01 06:30:32;;;;;;;2.60;1.77;;;;;;;;;;4933309;29;20028;-74
2021/12/01 06:32:57;;;;;;;4.03;3.07;;;;;;;;;;4933050;29;20027;-73
2021/12/01 06:35:23;;;;;;;2.70;1.80;;;;;;;;;;4933267;29;20460;-76
2021/12/01 06:37:50;;;;;;;3.53;2.10;;;;;;;;;;4933366;29;20034;-77
2021/12/01 06:40:17;;;;;;;4.27;2.13;;;;;;;;;;4933637;29;20118;-78
2021/12/01 06:42:43;;;;;;;3.23;2.10;;;;;;;;;;4916530;29;20526;-77
2021/12/01 06:45:11;;;;;;;3.10;2.23;;;;;;;;;;4933486;29;20034;-77
2021/12/01 06:47:37;;;;;;;2.87;2.07;;;;;;;;;;4935030;29;20031;-77
2021/12/01 06:50:05;;;;;;;2.83;1.77;;;;;;;;;;4932936;29;20051;-76
2021/12/01 06:52:31;;;;;;;5.00;2.10;;;;;;;;;;4933180;29;20023;-76
2021/12/01 06:54:57;;;;;;;6.57;2.17;;;;;;;;;;4919544;29;20107;-78
2021/12/01 06:57:24;;;;;;;10.37;3.50;;;;;;;;;;4936581;29;20032;-76
2021/12/01 06:59:49;;;;;;;7.63;2.27;;;;;;;;;;4934739;29;20400;-78
2021/12/01 07:02:17;;;;;;;3.07;2.37;;;;;;;;;;4933270;29;20500;-76
2021/12/01 07:04:43;;;;;;;4.10;2.17;;;;;;;;;;4933359;29;20027;-76
2021/12/01 07:07:08;;;;;;;6.13;3.17;;;;;;;;;;4932758;29;20388;-77
2021/12/01 07:09:34;;;;;;;3.20;1.90;;;;;;;;;;4932550;29;20114;-76
2021/12/01 07:11:59;;;;;;;1.97;1.77;;;;;;;;;;4932910;29;20392;-72
2021/12/01 07:14:25;;;;;;;2.90;2.17;;;;;;;;;;4932799;29;20043;-76
2021/12/01 07:16:52;;;;;;;3.23;2.13;;;;;;;;;;4932928;29;20027;-74
2021/12/01 07:19:17;;;;;;;3.27;2.23;;;;;;;;;;4921764;29;20042;-76
2021/12/01 07:21:43;;;;;;;4.87;2.57;;;;;;;;;;4928964;29;20040;-74
2021/12/01 07:24:08;;;;;;;7.83;2.80;;;;;;;;;;4915902;29;20118;-76
2021/12/01 07:26:34;;;;;;;3.57;2.67;;;;;;;;;;4925580;29;20050;-77
2021/12/01 07:29:01;;;;;;;7.20;2.53;;;;;;;;;;4928277;29;20035;-75
2021/12/01 07:31:26;;;;;;;6.03;2.37;;;;;;;;;;4928547;29;20031;-77
2021/12/01 07:33:52;;;;;;;3.07;2.20;;;;;;;;;;4932809;29;20035;-77
2021/12/01 07:36:18;;;;;;;4.17;2.73;;;;;;;;;;4929527;29;20043;-75
2021/12/01 07:38:43;;;;;;;3.33;2.10;;;;;;;;;;4926307;29;20274;-75
2021/12/01 07:41:09;;;;;;;8.70;2.00;;;;;;;;;;4927186;29;20114;-73
2021/12/01 07:43:35;;;;;;;3.13;2.67;;;;;;;;;;4928253;29;20050;-77
2021/12/01 07:46:01;;;;;;;6.73;2.93;;;;;;;;;;4926411;29;20046;-74
2021/12/01 07:48:27;;;;;;;9.70;3.87;;;;;;;;;;4924717;29;20038;-78
2021/12/01 07:50:55;;;;;;;12.20;3.50;;;;;;;;;;4925900;29;20027;-73
2021/12/01 07:53:20;;;;;;;5.73;3.03;;;;;;;;;;4918224;29;20028;-74
2021/12/01 07:55:46;;;;;;;11.37;3.00;;;;;;;;;;4920183;29;20046;-72
2021/12/01 07:58:11;;;;;;;8.60;3.37;;;;;;;;;;4923921;29;20027;-76
2021/12/01 08:00:37;;;;;;;8.67;3.33;;;;;;;;;;4923435;29;20036;-74
2021/12/01 08:03:03;;;;;;;5.70;2.53;;;;;;;;;;4923906;29;20036;-75
2021/12/01 08:05:30;;;;;;;6.80;3.40;;;;;;;;;;4923534;29;20078;-75
2021/12/01 08:07:56;;;;;;;2.90;2.53;;;;;;;;;;4923507;29;20114;-73
2021/12/01 08:10:22;;;;;;;6.20;3.20;;;;;;;;;;4925591;29;20027;-75
2021/12/01 08:12:47;;;;;;;4.13;2.63;;;;;;;;;;4927403;29;20675;-74
2021/12/01 08:15:13;;;;;;;8.60;3.10;;;;;;;;;;4927593;29;20036;-73
2021/12/01 08:17:39;;;;;;;6.27;2.70;;;;;;;;;;4931565;29;20122;-76
2021/12/01 08:20:05;;;;;;;3.73;2.80;;;;;;;;;;4925209;29;20106;-74
2021/12/01 08:22:30;;;;;;;3.83;2.70;;;;;;;;;;4927461;29;20122;-76
2021/12/01 08:24:59;;;;;;;4.30;2.83;;;;;;;;;;4927584;29;20138;-76
2021/12/01 08:27:25;;;;;;;5.40;2.83;;;;;;;;;;4925090;29;20032;-75
2021/12/01 08:29:51;;;;;;;9.27;3.43;;;;;;;;;;4925512;29;20032;-74
2021/12/01 08:32:17;;;;;;;6.43;3.13;;;;;;;;;;4928316;29;20044;-74
2021/12/01 08:34:47;;;;;;;4.80;2.80;;;;;;;;;;4925769;29;20107;-75
2021/12/01 08:37:14;;;;;;;3.87;2.70;;;;;;;;;;4924266;29;20035;-74
2021/12/01 08:39:39;;;;;;;3.53;2.63;;;;;;;;;;4924653;29;20031;-76
2021/12/01 08:42:05;;;;;;;5.90;2.70;;;;;;;;;;4924393;29;20208;-75
2021/12/01 08:44:31;;;;;;;2.50;2.10;;;;;;;;;;4924581;29;20114;-76
2021/12/01 08:46:58;;;;;;;6.90;3.00;;;;;;;;;;4921722;29;20042;-75
2021/12/01 08:49:23;;;;;;;8.63;3.23;;;;;;;;;;4922850;29;20040;-76
2021/12/01 08:51:49;;;;;;;5.97;3.13;;;;;;;;;;4925997;29;20059;-74
2021/12/01 08:54:15;;;;;;;3.63;2.50;;;;;;;;;;4927680;29;20034;-74
2021/12/01 08:56:41;;;;;;;3.33;2.30;;;;;;;;;;4922456;29;20043;-75
2021/12/01 08:59:07;;;;;;;4.03;2.70;;;;;;;;;;4923624;29;20043;-75
2021/12/01 09:01:32;;;;;;;5.63;2.47;;;;;;;;;;4928329;29;20043;-76
2021/12/01 09:03:58;;;;;;;9.03;2.77;;;;;;;;;;4924656;29;20035;-73
2021/12/01 09:06:23;;;;;;;5.93;2.73;;;;;;;;;;4920147;29;20400;-74
2021/12/01 09:08:49;;;;;;;5.50;2.93;;;;;;;;;;4923051;29;20024;-74
2021/12/01 09:11:14;;;;;;;5.53;3.10;;;;;;;;;;4923631;29;20460;-76
2021/12/01 09:13:40;;;;;;;4.00;2.47;;;;;;;;;;4926160;29;20059;-75
2021/12/01 09:16:06;;;;;;;5.17;3.33;;;;;;;;;;4922456;29;20696;-76
2021/12/01 09:18:33;;;;;;;5.50;3.03;;;;;;;;;;4922193;29;20688;-77
2021/12/01 09:21:00;;;;;;;7.00;3.10;;;;;;;;;;4923459;29;20024;-73
2021/12/01 09:23:25;;;;;;;10.77;3.80;;;;;;;;;;4923075;29;20507;-76
2021/12/01 09:25:51;;;;;;;4.27;2.77;;;;;;;;;;4921353;29;20035;-76
2021/12/01 09:28:20;;;;;;;5.87;3.83;;;;;;;;;;4925696;29;20035;-74
2021/12/01 09:30:46;;;;;;;5.17;2.90;;;;;;;;;;4924727;29;20032;-74
2021/12/01 09:33:12;;;;;;;8.27;3.60;;;;;;;;;;4925627;29;20067;-76
2021/12/01 09:35:39;;;;;;;10.70;4.53;;;;;;;;;;4923869;29;20052;-76
2021/12/01 09:38:06;;;;;;;8.73;3.40;;;;;;;;;;4922111;29;20141;-77
2021/12/01 09:40:32;;;;;;;4.40;3.20;;;;;;;;;;4923978;29;20114;-75
2021/12/01 09:42:59;;;;;;;6.77;4.17;;;;;;;;;;4923891;29;20711;-79
2021/12/01 09:45:27;;;;;;;8.37;4.20;;;;;;;;;;4914068;29;20089;-78
2021/12/01 09:47:55;;;;;;;5.37;3.23;;;;;;;;;;4926308;29;20038;-75
2021/12/01 09:50:21;;;;;;;5.37;3.77;;;;;;;;;;4925475;29;20035;-77
2021/12/01 09:52:48;;;;;;;15.33;4.60;;;;;;;;;;4915184;29;20040;-74
2021/12/01 09:55:16;;;;;;;6.10;3.40;;;;;;;;;;4923946;29;20036;-75
2021/12/01 09:57:59;;;;;;;12.10;3.50;;;;;;;;;;4924865;29;20036;-75
2021/12/01 10:00:26;;;;;;;5.53;3.17;;;;;;;;;;4924888;29;20032;-75
2021/12/01 10:02:52;;;;;;;9.77;4.07;;;;;;;;;;4924065;29;20028;-77
2021/12/01 10:05:46;;;;;;;5.80;3.40;;;;;;;;;;4923511;29;20383;-75
2021/12/01 10:08:26;;;;;;;4.67;3.40;;;;;;;;;;4930000;29;20039;-75
2021/12/01 10:10:53;;;;;;;7.03;3.30;;;;;;;;;;4922110;29;20111;-73
2021/12/01 10:13:31;;;;;;;7.13;3.83;;;;;;;;;;4922089;29;20126;-76
2021/12/01 10:16:01;;;;;;;6.73;3.53;;;;;;;;;;4919123;29;20135;-75
2021/12/01 10:18:29;;;;;;;6.17;3.23;;;;;;;;;;4925387;29;20023;-75
2021/12/01 10:21:02;;;;;;;4.17;3.23;;;;;;;;;;4925085;29;20059;-77
2021/12/01 10:23:28;;;;;;;5.70;3.17;;;;;;;;;;4925176;29;20388;-76
2021/12/01 10:25:54;;;;;;;4.77;3.13;;;;;;;;;;4923400;29;20511;-75
2021/12/01 10:28:43;;;;;;;3.97;2.67;;;;;;;;;;4925268;29;20035;-76
2021/12/01 10:31:09;;;;;;;6.40;3.60;;;;;;;;;;4923970;29;20040;-77
2021/12/01 10:33:35;;;;;;;5.87;2.93;;;;;;;;;;4926251;29;20488;-78
2021/12/01 10:36:06;;;;;;;12.90;4.23;;;;;;;;;;4922209;29;20047;-76
2021/12/01 10:38:35;;;;;;;5.07;2.93;;;;;;;;;;4925412;29;20039;-77
2021/12/01 10:41:07;;;;;;;6.83;3.70;;;;;;;;;;4925157;29;20032;-76
2021/12/01 10:43:37;;;;;;;;;;;;;;;;;;4926620;29;20070;-77
2021/12/01 10:46:09;;;;;;;4.00;2.37;;;;;;;;;;4925674;29;20544;-75
2021/12/01 10:48:36;;;;;;;6.78;2.20;;;;;;;;;;4924250;29;20027;-76
2021/12/01 10:51:01;;;;;;;4.17;2.00;;;;;;;;;;4924285;29;20035;-76
2021/12/01 10:53:28;;;;;;;4.50;1.83;;;;;;;;;;4923971;29;20032;-75
2021/12/01 10:56:00;;;;;;;3.77;2.07;;;;;;;;;;4924776;29;20466;-73
2021/12/01 10:58:32;;;;;;;3.63;2.42;;;;;;;;;;4926247;29;20055;-76
2021/12/01 11:01:00;;;;;;;5.17;1.70;;;;;;;;;;4923976;29;20039;-76
2021/12/01 11:03:29;;;;;;;2.83;1.43;;;;;;;;;;4923800;29;20027;-76
2021/12/01 11:06:21;;;;;;;2.10;1.57;;;;;;;;;;4921445;29;20034;-74
2021/12/01 11:08:55;;;;;;;7.50;2.15;;;;;;;;;;4925599;29;20075;-73
2021/12/01 11:11:21;;;;;;;3.80;2.10;;;;;;;;;;4926277;29;20023;-73
2021/12/01 11:13:48;;;;;;;7.60;2.40;;;;;;;;;;4927295;29;20035;-72
2021/12/01 11:16:17;;;;;;;4.60;1.73;;;;;;;;;;4924142;29;20035;-75
2021/12/01 11:18:48;;;;;;;3.63;2.00;;;;;;;;;;4943823;29;20027;-77
2021/12/01 11:21:18;;;;;;;4.73;1.90;;;;;;;;;;4928904;29;20040;-75
2021/12/01 11:23:49;;;;;;;3.17;2.30;;;;;;;;;;4926543;29;20051;-74
2021/12/01 11:26:26;;;;;;;3.57;1.80;;;;;;;;;;4925945;29;20595;-74
2021/12/01 11:28:55;;;;;;;3.40;2.17;;;;;;;;;;4925486;29;20083;-73
2021/12/01 11:31:23;;;;;;;3.10;1.70;;;;;;;;;;4924919;29;20027;-72
2021/12/01 11:33:55;;;;;;;3.80;2.37;;;;;;;;;;4928303;29;20063;-73
2021/12/01 11:36:25;;;;;;;3.13;2.33;;;;;;;;;;4906909;29;20051;-73
2021/12/01 11:39:06;;;;;;;3.40;2.50;;;;;;;;;;4928978;29;20055;-74
2021/12/01 11:41:33;;;;;;;5.57;2.60;;;;;;;;;;4927176;29;20023;-73
2021/12/01 11:44:02;;;;;;;3.67;2.00;;;;;;;;;;4910177;29;20043;-73
2021/12/01 11:46:30;;;;;;;4.97;2.20;;;;;;;;;;4925205;29;20286;-74
2021/12/01 11:48:59;;;;;;;6.50;2.30;;;;;;;;;;4927438;29;20042;-73
2021/12/01 11:51:32;;;;;;;2.97;1.87;;;;;;;;;;4931038;29;20535;-73
2021/12/01 11:54:05;;;;;;;6.77;1.83;;;;;;;;;;4931361;29;20040;-74
2021/12/01 11:56:34;;;;;;;3.70;2.13;;;;;;;;;;4930433;29;20043;-75
2021/12/01 11:59:14;;;;;;;6.30;2.30;;;;;;;;;;4931294;29;20035;-72
2021/12/01 12:01:43;;;;;;;3.07;1.73;;;;;;;;;;4922679;29;20027;-75
2021/12/01 12:04:11;;;;;;;12.43;2.47;;;;;;;;;;4924478;29;20070;-72
2021/12/01 12:06:49;;;;;;;3.63;2.17;;;;;;;;;;4924083;29;20031;-75
2021/12/01 12:09:18;;;;;;;3.97;1.70;;;;;;;;;;4924588;29;20102;-73
2021/12/01 12:12:17;;;;;;;3.70;2.20;;;;;;;;;;4926075;29;20050;-74
2021/12/01 12:14:46;;;;;;;4.37;1.67;;;;;;;;;;4929599;28;20151;-73
2021/12/01 12:17:30;;;;;;;3.97;1.80;;;;;;;;;;4924933;29;20388;-73
2021/12/01 12:20:32;;;;;;;7.80;2.60;;;;;;;;;;4921259;29;20154;-72
2021/12/01 12:23:01;;;;;;;4.18;2.40;;;;;;;;;;4928791;29;20058;-73
2021/12/01 12:25:46;;;;;;;2.67;1.83;;;;;;;;;;4924046;29;20500;-72
2021/12/01 12:28:32;;;;;;;4.50;1.90;;;;;;;;;;4926106;29;20127;-73
2021/12/01 12:31:19;;;;;;;6.73;2.33;;;;;;;;;;4923626;29;20034;-73
2021/12/01 12:33:53;;;;;;;7.37;3.43;;;;;;;;;;4933834;28;20508;-73
2021/12/01 12:36:35;;;;;;;4.10;2.67;;;;;;;;;;4925162;29;20154;-74
2021/12/01 12:39:06;;;;;;;3.90;2.07;;;;;;;;;;4912552;29;20134;-72
2021/12/01 12:41:31;;;;;;;4.43;2.40;;;;;;;;;;4923980;29;20476;-73
2021/12/01 12:44:27;;;;;;;4.80;2.60;;;;;;;;;;4923706;29;20278;-73
2021/12/01 12:47:22;;;;;;;3.50;2.00;;;;;;;;;;4922372;29;20146;-74
2021/12/01 12:49:53;;;;;;;3.97;2.50;;;;;;;;;;4923562;29;20405;-75
2021/12/01 12:52:25;;;;;;;3.80;2.10;;;;;;;;;;4923929;29;20063;-74
2021/12/01 12:54:53;;;;;;;5.18;2.35;;;;;;;;;;4921260;29;20050;-73
2021/12/01 12:57:20;;;;;;;2.77;2.57;;;;;;;;;;4922595;29;20032;-73
2021/12/01 12:59:45;;;;;;;2.87;2.40;;;;;;;;;;4925397;29;20039;-73
2021/12/01 13:02:11;;;;;;;2.33;2.00;;;;;;;;;;4921404;29;20094;-72
2021/12/01 13:04:51;;;;;;;5.53;2.30;;;;;;;;;;4924337;29;20461;-71
2021/12/01 13:07:51;;;;;;;1.70;1.57;;;;;;;;;;4923077;29;20115;-72
2021/12/01 13:10:17;;;;;;;6.03;2.00;;;;;;;;;;4923205;29;20036;-74
2021/12/01 13:12:45;;;;;;;18.53;4.30;;;;;;;;;;4923168;29;20110;-72
2021/12/01 13:15:36;;;;;;;6.90;3.20;;;;;;;;;;4922078;29;20038;-72
2021/12/01 13:18:05;;;;;;;3.17;1.90;;;;;;;;;;4923641;29;20032;-73
2021/12/01 13:20:35;;;;;;;2.50;1.93;;;;;;;;;;4922693;29;20504;-71
2021/12/01 13:23:13;;;;;;;4.63;2.77;;;;;;;;;;4920500;29;20055;-73
2021/12/01 13:25:51;;;;;;;9.53;2.37;;;;;;;;;;4921338;29;20027;-74
2021/12/01 13:28:29;;;;;;;7.63;2.67;;;;;;;;;;4919081;29;20107;-73
2021/12/01 13:30:59;;;;;;;3.33;2.00;;;;;;;;;;4923138;29;20114;-73
2021/12/01 13:33:27;;;;;;;6.87;2.00;;;;;;;;;;4922933;29;20941;-74
2021/12/01 13:35:53;;;;;;;3.13;2.23;;;;;;;;;;4907144;29;20521;-73
2021/12/01 13:38:33;;;;;;;12.07;2.50;;;;;;;;;;4923998;29;20074;-73
2021/12/01 13:41:13;;;;;;;5.53;2.33;;;;;;;;;;4926008;29;20027;-73
2021/12/01 13:43:40;;;;;;;5.87;2.47;;;;;;;;;;4924147;29;20112;-73
2021/12/01 13:46:06;;;;;;;3.03;2.23;;;;;;;;;;4927032;29;20476;-74
2021/12/01 13:48:33;;;;;;;5.77;2.37;;;;;;;;;;4928759;29;20039;-74
2021/12/01 13:51:12;;;;;;;5.80;2.57;;;;;;;;;;4920545;29;20503;-74
2021/12/01 13:53:41;;;;;;;13.30;4.90;;;;;;;;;;4927966;29;20058;-73
2021/12/01 13:56:11;;;;;;;3.43;1.93;;;;;;;;;;4928759;29;20042;-72
2021/12/01 13:58:37;;;;;;;2.70;2.00;;;;;;;;;;4927440;29;20058;-71
2021/12/01 14:01:06;;;;;;;5.57;2.30;;;;;;;;;;4927284;29;20047;-73
2021/12/01 14:03:32;;;;;;;5.83;1.93;;;;;;;;;;4926941;29;20040;-72
2021/12/01 14:06:08;;;;;;;3.80;2.80;;;;;;;;;;4927479;29;20146;-73
2021/12/01 14:08:52;;;;;;;4.73;2.00;;;;;;;;;;4927634;29;20475;-72
2021/12/01 14:11:27;;;;;;;2.77;2.00;;;;;;;;;;4918240;29;20356;-72
2021/12/01 14:13:55;;;;;;;11.67;2.10;;;;;;;;;;4925063;29;20042;-74
2021/12/01 14:16:24;;;;;;;6.53;2.00;;;;;;;;;;4926800;29;20118;-74
2021/12/01 14:18:54;;;;;;;4.47;1.53;;;;;;;;;;4927134;29;20043;-75
2021/12/01 14:21:24;;;;;;;5.80;2.60;;;;;;;;;;4924921;29;20039;-73
2021/12/01 14:23:53;;;;;;;5.87;2.20;;;;;;;;;;4928716;29;20162;-73
2021/12/01 14:26:34;;;;;;;3.13;1.90;;;;;;;;;;4927451;29;20032;-73
2021/12/01 14:29:09;;;;;;;3.45;2.30;;;;;;;;;;4927548;29;20384;-74
2021/12/01 14:31:35;;;;;;;4.13;2.73;;;;;;;;;;4928314;29;20110;-73
2021/12/01 14:34:21;;;;;;;6.67;1.70;;;;;;;;;;4928698;29;20034;-73
2021/12/01 14:36:52;;;;;;;4.13;2.07;;;;;;;;;;4927926;29;20046;-74
2021/12/01 14:39:19;;;;;;;4.17;1.90;;;;;;;;;;4924483;29;20504;-73
2021/12/01 14:41:48;;;;;;;5.33;1.93;;;;;;;;;;4927834;29;20039;-74
2021/12/01 14:44:15;;;;;;;4.10;2.00;;;;;;;;;;4925849;29;20074;-73
2021/12/01 14:46:41;;;;;;;5.27;2.43;;;;;;;;;;4925606;29;20050;-73
2021/12/01 14:49:11;;;;;;;8.10;2.33;;;;;;;;;;4919559;29;20040;-73
2021/12/01 14:51:45;;;;;;;4.07;1.90;;;;;;;;;;4931336;29;20031;-73
2021/12/01 14:54:14;;;;;;;4.53;1.93;;;;;;;;;;4931579;29;20027;-74
2021/12/01 14:56:54;;;;;;;7.77;1.90;;;;;;;;;;4930457;29;20035;-73
2021/12/01 14:59:20;;;;;;;6.17;2.27;;;;;;;;;;4930275;29;20036;-73